Time;durP1;ratioP1;P1;durP2;ratioP2;P2;SDS_P1;SDS_P2;PMS_P1;PMS_P2;Temp;Humidity;BMP_temperature;BMP_pressure;BME280_temperature;BME280_humidity;BME280_pressure;Samples;Min_cycle;Max_cycle;Signal;HPM_P1;HPM_P2
2023/07/14 00:00:16;;;;;;;6.00;4.47;;;16.00;99.90;;;;;;5052270;28;20063;-74
2023/07/14 00:02:44;;;;;;;5.70;5.20;;;16.00;99.90;;;;;;5052294;28;20124;-74
2023/07/14 00:05:19;;;;;;;5.10;4.43;;;16.00;99.90;;;;;;5052276;28;20068;-74
2023/07/14 00:07:48;;;;;;;4.93;4.30;;;16.00;99.90;;;;;;5052296;28;20041;-74
2023/07/14 00:10:40;;;;;;;4.28;3.88;;;16.00;99.90;;;;;;5052262;28;20449;-74
2023/07/14 00:13:07;;;;;;;5.38;3.97;;;16.00;99.90;;;;;;5048565;28;20481;-74
2023/07/14 00:15:38;;;;;;;7.28;4.90;;;16.00;99.90;;;;;;5052104;28;20084;-74
2023/07/14 00:18:20;;;;;;;5.80;5.18;;;15.90;99.90;;;;;;5052057;28;20048;-74
2023/07/14 00:20:46;;;;;;;6.45;4.93;;;15.90;99.90;;;;;;5052608;28;20044;-73
2023/07/14 00:23:13;;;;;;;7.63;5.32;;;15.90;99.90;;;;;;5052340;28;20053;-74
2023/07/14 00:25:40;;;;;;;5.63;4.85;;;15.80;99.90;;;;;;5034614;28;20045;-74
2023/07/14 00:28:18;;;;;;;9.82;5.38;;;15.70;99.90;;;;;;5034854;28;20112;-74
2023/07/14 00:30:45;;;;;;;6.68;5.80;;;15.70;99.90;;;;;;5052369;28;20049;-74
2023/07/14 00:33:19;;;;;;;6.65;5.55;;;15.60;99.90;;;;;;5051923;28;20048;-74
2023/07/14 00:35:49;;;;;;;5.97;5.38;;;15.50;99.90;;;;;;5052038;28;20096;-74
2023/07/14 00:38:14;;;;;;;8.30;5.72;;;15.50;99.90;;;;;;5052002;28;20045;-73
2023/07/14 00:40:46;;;;;;;6.20;5.65;;;15.40;99.90;;;;;;5052007;28;20049;-74
2023/07/14 00:43:18;;;;;;;8.52;5.97;;;15.30;99.90;;;;;;5034084;28;20175;-74
2023/07/14 00:45:47;;;;;;;7.13;5.30;;;15.40;99.90;;;;;;5034093;28;20124;-74
2023/07/14 00:48:18;;;;;;;9.48;6.53;;;15.30;99.90;;;;;;5051696;28;20477;-74
2023/07/14 00:50:50;;;;;;;11.63;7.03;;;15.30;99.90;;;;;;5051502;28;20044;-74
2023/07/14 00:53:20;;;;;;;7.03;5.68;;;15.30;99.90;;;;;;5034176;28;20128;-74
2023/07/14 00:55:59;;;;;;;6.97;6.10;;;15.30;99.90;;;;;;5051851;28;20454;-74
2023/07/14 00:58:27;;;;;;;11.38;7.00;;;15.20;99.90;;;;;;5052052;28;20144;-74
2023/07/14 01:01:08;;;;;;;11.48;7.80;;;15.20;99.90;;;;;;5051811;28;20045;-74
2023/07/14 01:03:40;;;;;;;8.45;7.40;;;15.20;99.90;;;;;;5055294;28;20049;-74
2023/07/14 01:06:26;;;;;;;9.60;6.55;;;15.20;99.90;;;;;;5055430;28;20044;-73
2023/07/14 01:08:57;;;;;;;9.20;6.93;;;15.20;99.90;;;;;;5037561;28;20101;-74
2023/07/14 01:11:30;;;;;;;7.95;6.55;;;15.10;99.90;;;;;;5054907;28;20049;-74
2023/07/14 01:13:57;;;;;;;9.70;7.20;;;15.00;99.90;;;;;;5054949;28;20045;-74
2023/07/14 01:16:22;;;;;;;10.43;6.57;;;15.00;99.90;;;;;;5054924;28;20041;-74
2023/07/14 01:18:50;;;;;;;9.20;7.85;;;15.00;99.90;;;;;;5037070;28;20047;-74
2023/07/14 01:21:21;;;;;;;9.82;7.90;;;15.00;99.90;;;;;;5054766;28;20056;-74
2023/07/14 01:24:01;;;;;;;8.80;7.88;;;15.00;99.90;;;;;;5054661;28;20045;-74
2023/07/14 01:26:45;;;;;;;9.55;7.63;;;15.00;99.90;;;;;;5055219;28;20041;-74
2023/07/14 01:29:11;;;;;;;10.30;8.13;;;14.90;99.90;;;;;;5054323;28;20076;-74
2023/07/14 01:31:37;;;;;;;8.48;7.18;;;14.90;99.90;;;;;;5054608;28;20045;-74
2023/07/14 01:34:03;;;;;;;9.60;8.02;;;14.90;99.90;;;;;;5054274;28;20036;-74
2023/07/14 01:36:29;;;;;;;10.98;8.25;;;14.90;99.90;;;;;;5054318;28;20139;-74
2023/07/14 01:38:55;;;;;;;10.52;7.65;;;14.90;99.90;;;;;;5054972;28;20061;-74
2023/07/14 01:41:21;;;;;;;12.13;10.20;;;14.90;99.90;;;;;;5054738;28;20136;-74
2023/07/14 01:43:48;;;;;;;8.85;7.85;;;14.90;99.90;;;;;;5054414;28;20059;-75
2023/07/14 01:46:19;;;;;;;8.82;7.93;;;14.80;99.90;;;;;;5054020;28;20466;-74
2023/07/14 01:48:59;;;;;;;11.68;8.65;;;14.90;99.90;;;;;;5054304;28;20521;-74
2023/07/14 01:51:35;;;;;;;12.55;9.57;;;14.90;99.90;;;;;;5036855;28;20049;-77
2023/07/14 01:54:33;;;;;;;10.15;9.15;;;14.90;99.90;;;;;;5054147;28;20123;-74
2023/07/14 01:57:03;;;;;;;10.27;9.25;;;14.80;99.90;;;;;;5009523;28;20052;-74
2023/07/14 01:59:45;;;;;;;10.40;8.98;;;14.80;99.90;;;;;;5036377;28;20064;-74
2023/07/14 02:02:22;;;;;;;10.40;8.40;;;14.80;99.90;;;;;;5054780;28;20071;-74
2023/07/14 02:04:49;;;;;;;10.73;9.52;;;14.80;99.90;;;;;;5054787;28;20055;-75
2023/07/14 02:07:15;;;;;;;11.38;9.40;;;14.70;99.90;;;;;;5054250;28;20098;-75
2023/07/14 02:09:42;;;;;;;12.85;10.68;;;14.70;99.90;;;;;;5054270;28;20099;-74
2023/07/14 02:12:25;;;;;;;9.63;8.10;;;14.70;99.90;;;;;;5053486;28;20053;-74
2023/07/14 02:14:58;;;;;;;11.57;9.40;;;14.70;99.90;;;;;;5053728;28;20091;-75
2023/07/14 02:17:31;;;;;;;13.82;9.35;;;14.60;99.90;;;;;;5053817;28;20203;-75
2023/07/14 02:19:58;;;;;;;15.73;9.32;;;14.60;99.90;;;;;;5053617;28;20119;-74
2023/07/14 02:22:25;;;;;;;11.35;10.23;;;14.60;99.90;;;;;;5053452;28;20525;-75
2023/07/14 02:24:52;;;;;;;12.63;10.00;;;14.60;99.90;;;;;;5053855;28;20047;-74
2023/07/14 02:27:18;;;;;;;10.60;9.38;;;14.60;99.90;;;;;;5053499;28;20049;-74
2023/07/14 02:29:44;;;;;;;8.75;7.90;;;14.50;99.90;;;;;;5036418;28;20121;-75
2023/07/14 02:32:24;;;;;;;12.52;9.57;;;14.50;99.90;;;;;;5053242;28;20458;-74
2023/07/14 02:35:05;;;;;;;10.38;9.30;;;14.50;99.90;;;;;;5035551;28;20476;-75
2023/07/14 02:38:24;;;;;;;12.73;9.75;;;14.50;99.90;;;;;;5052845;28;20500;-75
2023/07/14 02:40:25;;;;;;;10.35;8.02;;;14.50;99.90;;;;;;5038865;28;20053;-75
2023/07/14 02:42:52;;;;;;;11.77;10.57;;;14.40;99.90;;;;;;5053003;28;20480;-74
2023/07/14 02:45:19;;;;;;;10.15;9.00;;;14.30;99.90;;;;;;5035407;28;20041;-74
2023/07/14 02:47:47;;;;;;;10.65;8.27;;;14.30;99.90;;;;;;5019225;28;20041;-74
2023/07/14 02:50:13;;;;;;;8.85;7.35;;;14.30;99.90;;;;;;5035824;28;20088;-73
2023/07/14 02:52:39;;;;;;;10.75;8.23;;;14.30;99.90;;;;;;5052831;28;20496;-74
2023/07/14 02:55:07;;;;;;;10.05;8.57;;;14.30;99.90;;;;;;5052742;28;20136;-72
2023/07/14 02:57:34;;;;;;;9.18;8.02;;;14.30;99.90;;;;;;5035352;28;20044;-74
2023/07/14 03:00:00;;;;;;;12.95;9.80;;;14.20;99.90;;;;;;5035262;28;20132;-73
2023/07/14 03:02:25;;;;;;;9.68;8.27;;;14.20;99.90;;;;;;5052798;28;20128;-73
2023/07/14 03:04:51;;;;;;;10.35;8.88;;;14.20;99.90;;;;;;5053069;28;20045;-73
2023/07/14 03:07:17;;;;;;;14.30;9.23;;;14.20;99.90;;;;;;5052833;28;20045;-74
2023/07/14 03:09:42;;;;;;;9.93;7.53;;;14.20;99.90;;;;;;5052918;28;20138;-74
2023/07/14 03:12:08;;;;;;;14.85;11.07;;;14.20;99.90;;;;;;5052809;28;20471;-73
2023/07/14 03:14:34;;;;;;;12.85;9.90;;;14.20;99.90;;;;;;5053309;28;20124;-74
2023/07/14 03:17:00;;;;;;;12.75;10.32;;;14.10;99.90;;;;;;5052756;28;20481;-74
2023/07/14 03:19:26;;;;;;;13.32;9.02;;;14.20;99.90;;;;;;5052578;28;20120;-74
2023/07/14 03:21:51;;;;;;;10.13;8.07;;;14.20;99.90;;;;;;5052913;28;20507;-74
2023/07/14 03:24:17;;;;;;;13.40;10.18;;;14.20;99.90;;;;;;5034253;28;20124;-74
2023/07/14 03:26:43;;;;;;;10.90;7.97;;;14.20;99.90;;;;;;5034623;28;20049;-74
2023/07/14 03:29:08;;;;;;;9.27;8.40;;;14.20;99.90;;;;;;5053191;28;20094;-74
2023/07/14 03:31:34;;;;;;;10.88;8.45;;;14.10;99.90;;;;;;5035417;28;20465;-74
2023/07/14 03:34:00;;;;;;;9.75;8.32;;;14.10;99.90;;;;;;5053999;28;20044;-74
2023/07/14 03:36:25;;;;;;;13.20;8.52;;;14.10;99.90;;;;;;5036839;28;20499;-73
2023/07/14 03:39:20;;;;;;;10.35;9.35;;;14.10;99.90;;;;;;5053765;28;20080;-74
2023/07/14 03:41:45;;;;;;;12.10;9.93;;;14.10;99.90;;;;;;5052543;28;20191;-74
2023/07/14 03:44:11;;;;;;;10.90;9.48;;;14.00;99.90;;;;;;5052343;28;20606;-74
2023/07/14 03:46:37;;;;;;;12.00;9.38;;;14.00;99.90;;;;;;5052550;28;20052;-73
2023/07/14 03:49:03;;;;;;;11.45;9.75;;;14.10;99.90;;;;;;5052102;28;20080;-74
2023/07/14 03:51:30;;;;;;;10.48;9.02;;;14.00;99.90;;;;;;5052201;28;20477;-74
2023/07/14 03:53:56;;;;;;;13.18;9.07;;;14.10;99.90;;;;;;5052317;28;20489;-74
2023/07/14 03:56:22;;;;;;;11.38;9.32;;;14.00;99.90;;;;;;5052462;28;20099;-74
2023/07/14 03:58:48;;;;;;;14.30;9.20;;;14.00;99.90;;;;;;5052155;28;20049;-75
2023/07/14 04:01:14;;;;;;;10.98;9.85;;;14.10;99.90;;;;;;5052046;28;20055;-74
2023/07/14 04:03:40;;;;;;;12.63;9.32;;;14.10;99.90;;;;;;5052112;28;20495;-74
2023/07/14 04:06:06;;;;;;;12.35;9.73;;;14.10;99.90;;;;;;5001512;28;20183;-74
2023/07/14 04:08:43;;;;;;;10.57;6.95;;;14.10;99.90;;;;;;5034657;28;20061;-74
2023/07/14 04:11:10;;;;;;;12.63;9.10;;;14.10;99.90;;;;;;5052184;28;20049;-74
2023/07/14 04:13:36;;;;;;;10.55;9.15;;;14.10;99.90;;;;;;5034399;28;20057;-74
2023/07/14 04:16:04;;;;;;;11.55;9.52;;;14.10;99.90;;;;;;5052282;28;20040;-74
2023/07/14 04:18:31;;;;;;;11.77;9.23;;;14.20;99.90;;;;;;5052039;28;20119;-74
2023/07/14 04:21:01;;;;;;;14.35;8.70;;;14.20;99.90;;;;;;5051903;28;20554;-75
2023/07/14 04:23:27;;;;;;;11.20;9.00;;;14.20;99.90;;;;;;5051772;28;20481;-73
2023/07/14 04:25:53;;;;;;;8.98;7.60;;;14.20;99.90;;;;;;5034301;28;20052;-76
2023/07/14 04:28:19;;;;;;;9.00;8.18;;;14.30;99.90;;;;;;5051807;28;20496;-73
2023/07/14 04:30:56;;;;;;;11.13;7.70;;;14.30;99.90;;;;;;5052482;28;20127;-74
2023/07/14 04:33:22;;;;;;;10.05;7.60;;;14.30;99.90;;;;;;5051895;28;20545;-73
2023/07/14 04:35:52;;;;;;;9.27;7.15;;;14.30;99.90;;;;;;5053741;28;20095;-74
2023/07/14 04:38:18;;;;;;;10.02;7.68;;;14.40;99.90;;;;;;5056032;28;20053;-73
2023/07/14 04:40:44;;;;;;;10.02;8.02;;;14.40;99.90;;;;;;5056093;28;20079;-74
2023/07/14 04:43:11;;;;;;;8.48;6.80;;;14.50;99.90;;;;;;5055842;28;20442;-73
2023/07/14 04:45:41;;;;;;;8.27;7.45;;;14.60;99.90;;;;;;5055488;28;20498;-73
2023/07/14 04:48:09;;;;;;;10.43;6.97;;;14.60;99.90;;;;;;5055643;28;20052;-73
2023/07/14 04:50:35;;;;;;;8.13;6.97;;;14.60;99.90;;;;;;5055456;28;20049;-74
2023/07/14 04:53:05;;;;;;;9.82;6.78;;;14.70;99.90;;;;;;5021944;28;20081;-75
2023/07/14 04:55:41;;;;;;;10.27;7.70;;;14.70;99.90;;;;;;5055172;28;20088;-73
2023/07/14 04:58:12;;;;;;;10.80;7.65;;;14.80;99.90;;;;;;5055130;28;20063;-73
2023/07/14 05:00:39;;;;;;;9.93;7.93;;;14.90;99.90;;;;;;5037680;28;20053;-73
2023/07/14 05:03:06;;;;;;;12.88;7.55;;;15.00;99.90;;;;;;5055622;28;20187;-73
2023/07/14 05:05:32;;;;;;;9.57;7.53;;;15.00;99.90;;;;;;5055151;28;20049;-74
2023/07/14 05:07:58;;;;;;;9.45;6.90;;;15.10;99.90;;;;;;5055097;28;20041;-73
2023/07/14 05:10:25;;;;;;;10.65;7.63;;;15.20;99.90;;;;;;5037952;28;20045;-73
2023/07/14 05:12:55;;;;;;;8.25;6.85;;;15.30;99.90;;;;;;5055501;28;20041;-75
2023/07/14 05:15:22;;;;;;;7.90;6.35;;;15.30;99.90;;;;;;5055024;28;20110;-75
2023/07/14 05:17:48;;;;;;;11.60;7.45;;;15.40;99.90;;;;;;5037167;28;20037;-74
2023/07/14 05:20:16;;;;;;;12.98;7.53;;;15.50;99.90;;;;;;5055127;28;20138;-74
2023/07/14 05:22:47;;;;;;;11.10;6.40;;;15.60;99.90;;;;;;5036984;28;20063;-74
2023/07/14 05:25:15;;;;;;;9.18;7.00;;;15.70;99.90;;;;;;5037088;28;20055;-75
2023/07/14 05:27:43;;;;;;;10.98;6.72;;;15.70;99.90;;;;;;5054799;28;20080;-74
2023/07/14 05:30:10;;;;;;;8.32;6.22;;;15.80;99.90;;;;;;5037098;28;20052;-73
2023/07/14 05:32:36;;;;;;;11.43;6.40;;;15.90;99.90;;;;;;5036837;28;20053;-74
2023/07/14 05:35:02;;;;;;;6.97;5.93;;;16.10;99.90;;;;;;5036416;28;20133;-74
2023/07/14 05:37:28;;;;;;;10.90;6.85;;;16.20;99.90;;;;;;5054405;28;20461;-74
2023/07/14 05:39:54;;;;;;;8.65;6.20;;;16.30;99.90;;;;;;5036566;28;20053;-74
2023/07/14 05:42:19;;;;;;;7.60;6.07;;;16.40;99.90;;;;;;5054584;28;20120;-73
2023/07/14 05:44:45;;;;;;;7.78;5.90;;;16.50;99.90;;;;;;5054388;28;20095;-73
2023/07/14 05:47:11;;;;;;;16.92;7.93;;;16.60;99.90;;;;;;5053433;28;20041;-74
2023/07/14 05:49:36;;;;;;;11.98;6.85;;;16.70;99.90;;;;;;5054249;28;20055;-74
2023/07/14 05:52:02;;;;;;;7.03;5.63;;;16.80;99.90;;;;;;5036609;28;20200;-73
2023/07/14 05:54:28;;;;;;;10.90;6.25;;;16.90;99.90;;;;;;5036316;28;20110;-72
2023/07/14 05:56:55;;;;;;;7.65;5.78;;;16.90;99.90;;;;;;5036900;28;20128;-73
2023/07/14 05:59:21;;;;;;;9.40;6.30;;;17.00;99.90;;;;;;5054333;28;20099;-74
2023/07/14 06:01:47;;;;;;;8.27;6.15;;;17.10;99.90;;;;;;5036309;28;20084;-74
2023/07/14 06:04:13;;;;;;;7.22;5.97;;;17.20;99.90;;;;;;5036115;28;20227;-73
2023/07/14 06:06:39;;;;;;;11.00;6.30;;;17.20;99.90;;;;;;5053818;28;20036;-73
2023/07/14 06:09:05;;;;;;;11.55;5.55;;;17.20;99.90;;;;;;5036151;28;20125;-73
2023/07/14 06:11:31;;;;;;;8.32;6.13;;;17.30;99.90;;;;;;5054299;28;20044;-73
2023/07/14 06:13:57;;;;;;;7.35;5.53;;;17.40;99.90;;;;;;5053693;28;20048;-75
2023/07/14 06:16:23;;;;;;;9.73;6.22;;;17.50;99.90;;;;;;5053764;28;20047;-74
2023/07/14 06:18:50;;;;;;;7.93;4.95;;;17.70;99.90;;;;;;5053873;28;20098;-74
2023/07/14 06:21:16;;;;;;;7.38;5.13;;;17.80;99.90;;;;;;5036398;28;20057;-73
2023/07/14 06:23:41;;;;;;;8.15;4.95;;;18.00;99.90;;;;;;5054228;28;20496;-74
2023/07/14 06:26:07;;;;;;;7.15;5.75;;;18.20;99.90;;;;;;5053894;28;20049;-74
2023/07/14 06:28:33;;;;;;;9.23;5.45;;;18.40;99.90;;;;;;5054111;28;20045;-74
2023/07/14 06:31:04;;;;;;;11.55;5.53;;;18.80;99.90;;;;;;5003134;28;20053;-74
2023/07/14 06:33:30;;;;;;;7.65;4.85;;;19.80;99.90;;;;;;5036162;28;20124;-75
2023/07/14 06:35:57;;;;;;;7.30;4.70;;;21.00;99.90;;;;;;5019152;28;20049;-75
2023/07/14 06:38:23;;;;;;;7.47;4.65;;;22.20;99.90;;;;;;5053916;28;20053;-75
2023/07/14 06:41:08;;;;;;;5.75;4.05;;;22.80;99.90;;;;;;5036023;28;20145;-73
2023/07/14 06:43:34;;;;;;;11.48;4.95;;;23.60;99.90;;;;;;5036377;28;20425;-73
2023/07/14 06:46:00;;;;;;;8.82;4.47;;;24.30;99.90;;;;;;5035967;28;20063;-75
2023/07/14 06:48:26;;;;;;;5.00;4.07;;;24.50;99.90;;;;;;5053287;28;20489;-73
2023/07/14 06:50:53;;;;;;;6.55;4.13;;;24.80;99.10;;;;;;5035909;28;20097;-74
2023/07/14 06:53:18;;;;;;;6.38;3.90;;;25.30;99.80;;;;;;5036026;28;20112;-74
2023/07/14 06:55:44;;;;;;;5.70;3.85;;;25.90;99.40;;;;;;5053277;28;20072;-75
2023/07/14 06:58:11;;;;;;;5.90;4.10;;;26.20;98.60;;;;;;5052940;28;20057;-75
2023/07/14 07:00:37;;;;;;;7.10;3.78;;;26.50;97.60;;;;;;5052874;28;20056;-74
2023/07/14 07:03:05;;;;;;;6.97;3.80;;;26.60;97.30;;;;;;5052530;28;20563;-74
2023/07/14 07:05:39;;;;;;;5.18;3.75;;;26.70;96.40;;;;;;5052802;28;20483;-74
2023/07/14 07:08:07;;;;;;;5.18;3.50;;;26.60;94.70;;;;;;5035095;28;20041;-75
2023/07/14 07:10:33;;;;;;;6.57;3.47;;;26.70;95.30;;;;;;5053293;28;20049;-75
2023/07/14 07:12:59;;;;;;;4.53;3.22;;;26.80;95.10;;;;;;5052662;28;20498;-74
2023/07/14 07:15:25;;;;;;;6.75;3.97;;;27.00;95.00;;;;;;5002933;28;20122;-75
2023/07/14 07:17:50;;;;;;;8.80;3.30;;;27.10;94.70;;;;;;5034747;28;20186;-74
2023/07/14 07:20:16;;;;;;;6.72;3.90;;;27.20;94.50;;;;;;5052523;28;20461;-74
2023/07/14 07:22:43;;;;;;;5.72;3.45;;;27.30;93.90;;;;;;5052495;28;20080;-75
2023/07/14 07:25:09;;;;;;;4.72;2.53;;;27.20;93.60;;;;;;5052366;28;20080;-73
2023/07/14 07:27:35;;;;;;;5.47;3.25;;;27.40;93.40;;;;;;5034891;28;20080;-74
2023/07/14 07:30:03;;;;;;;5.32;2.88;;;27.00;93.50;;;;;;5052238;28;20110;-75
2023/07/14 07:32:31;;;;;;;3.90;2.63;;;27.20;93.10;;;;;;5052309;28;20063;-74
2023/07/14 07:34:59;;;;;;;5.38;2.70;;;27.00;92.60;;;;;;5052386;28;20072;-76
2023/07/14 07:37:31;;;;;;;3.80;2.40;;;27.10;92.80;;;;;;5052757;28;20057;-74
2023/07/14 07:39:59;;;;;;;3.00;1.92;;;27.50;90.90;;;;;;5052272;28;20555;-75
2023/07/14 07:42:26;;;;;;;5.63;2.67;;;27.30;92.30;;;;;;5034672;28;20041;-76
2023/07/14 07:44:52;;;;;;;4.00;2.63;;;27.50;92.10;;;;;;5052090;28;20082;-74
2023/07/14 07:47:18;;;;;;;4.68;1.98;;;27.60;92.10;;;;;;5052556;28;20041;-74
2023/07/14 07:49:43;;;;;;;4.72;2.72;;;27.60;91.90;;;;;;5035171;28;20041;-74
2023/07/14 07:52:11;;;;;;;4.10;2.58;;;27.80;91.70;;;;;;5052846;28;20051;-75
2023/07/14 07:54:38;;;;;;;7.95;2.65;;;27.60;91.80;;;;;;5052040;28;20048;-75
2023/07/14 07:57:06;;;;;;;6.75;2.72;;;27.90;91.60;;;;;;5052585;28;20049;-75
2023/07/14 07:59:32;;;;;;;4.55;2.50;;;28.10;91.10;;;;;;5052410;28;20110;-74
2023/07/14 08:01:58;;;;;;;3.28;2.83;;;28.40;91.20;;;;;;5034393;28;20053;-75
2023/07/14 08:04:24;;;;;;;4.20;3.25;;;28.40;90.70;;;;;;5018144;28;20462;-76
2023/07/14 08:06:49;;;;;;;5.25;3.97;;;28.60;90.60;;;;;;5051865;28;20041;-75
2023/07/14 08:09:15;;;;;;;6.15;3.70;;;28.90;90.40;;;;;;5051980;28;20051;-75
2023/07/14 08:11:41;;;;;;;6.10;2.92;;;29.00;90.20;;;;;;5055720;28;20500;-76
2023/07/14 08:14:13;;;;;;;3.85;2.95;;;28.60;90.40;;;;;;5055913;28;20426;-75
2023/07/14 08:16:39;;;;;;;4.32;2.92;;;28.60;87.20;;;;;;5056026;28;20045;-76
2023/07/14 08:19:05;;;;;;;3.72;2.70;;;28.40;89.10;;;;;;5038202;28;20045;-75
2023/07/14 08:21:31;;;;;;;9.63;2.95;;;28.90;89.70;;;;;;5055892;28;20080;-75
2023/07/14 08:23:58;;;;;;;3.55;2.85;;;29.10;89.60;;;;;;5055978;28;20346;-75
2023/07/14 08:26:24;;;;;;;4.80;3.40;;;28.90;85.50;;;;;;5038201;28;20080;-76
2023/07/14 08:28:49;;;;;;;4.78;3.25;;;28.70;87.80;;;;;;5056255;28;20083;-75
2023/07/14 08:31:15;;;;;;;11.45;3.08;;;28.40;87.50;;;;;;5055769;28;20541;-75
2023/07/14 08:33:44;;;;;;;4.38;2.85;;;28.50;88.00;;;;;;5037753;28;20049;-75
2023/07/14 08:36:12;;;;;;;3.75;2.85;;;27.90;87.20;;;;;;5055518;28;20132;-75
2023/07/14 08:38:39;;;;;;;2.97;2.45;;;27.30;88.10;;;;;;5055428;28;20045;-74
2023/07/14 08:41:22;;;;;;;3.92;2.50;;;27.60;88.80;;;;;;5055881;28;20107;-74
2023/07/14 08:43:59;;;;;;;5.50;2.17;;;28.10;86.30;;;;;;5055463;28;20044;-75
2023/07/14 08:47:00;;;;;;;3.20;2.33;;;28.60;87.60;;;;;;5055422;28;20044;-75
2023/07/14 08:49:32;;;;;;;4.45;2.70;;;29.00;84.70;;;;;;5056095;28;20049;-74
2023/07/14 08:52:02;;;;;;;4.53;2.57;;;29.30;85.10;;;;;;5055473;28;20128;-74
2023/07/14 08:54:56;;;;;;;3.00;2.30;;;29.40;84.80;;;;;;5055411;28;20489;-75
2023/07/14 08:57:24;;;;;;;4.43;2.33;;;29.50;85.00;;;;;;5037597;28;20140;-75
2023/07/14 08:59:55;;;;;;;3.05;2.15;;;30.00;85.20;;;;;;5055128;28;20105;-74
2023/07/14 09:02:57;;;;;;;2.33;2.13;;;29.70;83.40;;;;;;5055512;28;20072;-74
2023/07/14 09:05:29;;;;;;;2.90;1.75;;;29.10;82.10;;;;;;5054334;28;20056;-74
2023/07/14 09:07:55;;;;;;;3.50;1.83;;;28.80;83.00;;;;;;5055048;28;20077;-74
2023/07/14 09:10:38;;;;;;;2.40;2.05;;;28.90;83.30;;;;;;5054973;28;20417;-74
2023/07/14 09:13:35;;;;;;;3.65;1.77;;;28.30;81.70;;;;;;5021174;28;20071;-73
2023/07/14 09:16:02;;;;;;;3.88;2.08;;;28.20;81.90;;;;;;5055027;28;20048;-75
2023/07/14 09:18:51;;;;;;;2.35;1.67;;;28.30;83.80;;;;;;5055129;28;20064;-73
2023/07/14 09:21:39;;;;;;;2.83;2.00;;;28.30;81.30;;;;;;5053961;28;20511;-74
2023/07/14 09:24:19;;;;;;;4.07;2.00;;;28.60;83.30;;;;;;5054832;28;20048;-73
2023/07/14 09:26:50;;;;;;;8.68;2.53;;;29.00;80.40;;;;;;5054696;28;20081;-74
2023/07/14 09:29:27;;;;;;;2.53;2.38;;;29.50;83.30;;;;;;5037614;28;20089;-74
2023/07/14 09:31:56;;;;;;;3.10;1.88;;;29.70;81.60;;;;;;5037359;28;20434;-73
2023/07/14 09:34:38;;;;;;;2.85;2.20;;;29.70;82.90;;;;;;5054814;28;20086;-73
2023/07/14 09:37:21;;;;;;;4.20;2.45;;;30.20;81.40;;;;;;5054464;28;20045;-74
2023/07/14 09:39:51;;;;;;;2.72;2.33;;;29.90;80.20;;;;;;5054534;28;20045;-73
2023/07/14 09:42:25;;;;;;;3.28;1.60;;;30.20;81.50;;;;;;5036811;28;20459;-73
2023/07/14 09:44:52;;;;;;;3.25;1.88;;;30.60;80.60;;;;;;5054877;28;20083;-74
2023/07/14 09:47:19;;;;;;;3.45;2.13;;;30.50;81.50;;;;;;5054234;28;20049;-74
2023/07/14 09:49:51;;;;;;;2.92;1.67;;;30.40;80.90;;;;;;5037227;28;20054;-73
2023/07/14 09:52:20;;;;;;;2.45;2.25;;;30.70;80.20;;;;;;5037162;28;20055;-74
2023/07/14 09:54:55;;;;;;;3.63;2.20;;;30.40;80.70;;;;;;5054150;28;20060;-73
2023/07/14 09:57:25;;;;;;;3.53;2.65;;;30.10;78.80;;;;;;5054113;28;20055;-74
2023/07/14 09:59:58;;;;;;;2.45;2.17;;;29.80;79.90;;;;;;5054136;28;20048;-72
2023/07/14 10:02:29;;;;;;;2.40;1.90;;;28.80;80.20;;;;;;5036312;28;20053;-73
2023/07/14 10:05:00;;;;;;;3.90;2.65;;;28.20;79.10;;;;;;5054439;28;20072;-73
2023/07/14 10:07:31;;;;;;;2.78;1.88;;;27.60;81.70;;;;;;5054370;28;20087;-73
2023/07/14 10:10:00;;;;;;;8.45;3.22;;;27.30;82.50;;;;;;5053877;28;20045;-73
2023/07/14 10:12:35;;;;;;;2.92;2.30;;;27.10;82.70;;;;;;5053902;28;20561;-73
2023/07/14 10:15:01;;;;;;;2.47;2.20;;;27.60;83.40;;;;;;5054591;28;20045;-73
2023/07/14 10:17:27;;;;;;;3.90;2.42;;;28.00;83.50;;;;;;5035976;28;20095;-74
2023/07/14 10:19:56;;;;;;;5.22;3.28;;;28.20;82.20;;;;;;5053676;28;20052;-73
2023/07/14 10:22:31;;;;;;;4.70;2.05;;;28.10;82.30;;;;;;5053627;28;20080;-73
2023/07/14 10:25:01;;;;;;;3.13;2.00;;;28.00;81.70;;;;;;5053969;28;20103;-73
2023/07/14 10:27:30;;;;;;;4.13;2.72;;;28.00;82.30;;;;;;5053549;28;20045;-73
2023/07/14 10:30:14;;;;;;;5.43;2.30;;;27.40;83.20;;;;;;5053448;28;20134;-74
2023/07/14 10:32:48;;;;;;;3.80;2.40;;;26.90;82.40;;;;;;5053230;28;20056;-73
2023/07/14 10:35:19;;;;;;;6.60;2.30;;;26.50;83.00;;;;;;5053954;28;20053;-73
2023/07/14 10:38:15;;;;;;;5.43;2.83;;;26.60;83.40;;;;;;5053687;28;20037;-73
2023/07/14 10:40:47;;;;;;;4.30;2.53;;;27.30;83.90;;;;;;5053561;28;20052;-71
2023/07/14 10:43:18;;;;;;;5.10;2.58;;;27.70;82.50;;;;;;5053820;28;20049;-73
2023/07/14 10:45:49;;;;;;;4.55;2.80;;;27.80;83.30;;;;;;5053502;28;20080;-72
2023/07/14 10:48:21;;;;;;;2.95;2.67;;;28.20;83.00;;;;;;5036109;28;20048;-72
2023/07/14 10:51:05;;;;;;;4.30;2.67;;;28.30;83.40;;;;;;5053653;28;20124;-72
2023/07/14 10:53:48;;;;;;;3.22;2.47;;;28.00;85.00;;;;;;5053483;28;20116;-72
2023/07/14 10:56:24;;;;;;;4.32;2.92;;;27.70;81.90;;;;;;5053203;28;20045;-72
2023/07/14 10:59:08;;;;;;;3.25;2.67;;;27.80;82.00;;;;;;5053330;28;20052;-73
2023/07/14 11:01:40;;;;;;;5.25;3.47;;;27.90;81.90;;;;;;5053668;28;20056;-72
2023/07/14 11:04:30;;;;;;;3.75;2.80;;;27.50;80.90;;;;;;5053116;28;20044;-73
2023/07/14 11:06:57;;;;;;;2.95;2.40;;;27.20;80.80;;;;;;5052998;28;20072;-72
2023/07/14 11:09:24;;;;;;;5.10;2.85;;;26.80;81.50;;;;;;5035498;28;20084;-72
2023/07/14 11:12:04;;;;;;;2.63;2.40;;;26.90;82.60;;;;;;5052952;28;20041;-72
2023/07/14 11:15:17;;;;;;;3.72;2.17;;;27.20;85.60;;;;;;5053131;28;20098;-72
2023/07/14 11:18:20;;;;;;;3.45;2.70;;;27.50;80.90;;;;;;5028740;28;20056;-72
2023/07/14 11:20:56;;;;;;;;;;;27.20;82.20;;;;;;5053121;28;20060;-72
2023/07/14 11:23:42;;;;;;;2.92;2.17;;;26.60;81.50;;;;;;5053367;28;19927;-72
2023/07/14 11:26:33;;;;;;;4.63;3.00;;;26.60;83.20;;;;;;5053285;28;20049;-72
2023/07/14 11:29:16;;;;;;;5.45;3.30;;;26.70;84.30;;;;;;5052670;28;20045;-72
2023/07/14 11:31:50;;;;;;;6.18;3.20;;;26.90;84.20;;;;;;5053272;28;20142;-72
2023/07/14 11:34:42;;;;;;;4.43;2.67;;;26.80;81.90;;;;;;5053160;28;20225;-72
2023/07/14 11:37:23;;;;;;;4.45;2.85;;;26.90;84.20;;;;;;5052990;28;20049;-72
2023/07/14 11:40:00;;;;;;;3.03;2.63;;;26.90;83.50;;;;;;5052563;28;20056;-72
2023/07/14 11:42:35;;;;;;;4.43;3.00;;;26.80;83.80;;;;;;5052557;28;20071;-72
2023/07/14 11:45:05;;;;;;;2.92;2.60;;;26.70;84.80;;;;;;5051767;28;20052;-72
2023/07/14 11:47:37;;;;;;;4.22;2.83;;;26.60;83.40;;;;;;5052069;28;20045;-72
2023/07/14 11:50:31;;;;;;;5.30;2.58;;;26.40;84.00;;;;;;5051967;28;20519;-71
2023/07/14 11:53:01;;;;;;;3.88;2.83;;;26.50;84.70;;;;;;5049302;28;20060;-72
2023/07/14 11:55:29;;;;;;;6.03;2.88;;;26.50;84.20;;;;;;5052639;28;20059;-72
2023/07/14 11:58:16;;;;;;;5.57;3.00;;;26.60;85.20;;;;;;5034431;28;20041;-70
2023/07/14 12:00:47;;;;;;;4.18;2.60;;;26.70;83.60;;;;;;5034154;28;20068;-73
2023/07/14 12:03:43;;;;;;;5.28;2.63;;;26.70;83.80;;;;;;5051819;28;20378;-71
2023/07/14 12:06:14;;;;;;;3.75;3.20;;;26.60;82.50;;;;;;5018040;28;20084;-72
2023/07/14 12:08:41;;;;;;;4.75;2.70;;;26.50;83.80;;;;;;5051004;28;20048;-72
2023/07/14 12:11:43;;;;;;;3.60;2.78;;;26.50;84.90;;;;;;5051820;28;20071;-71
2023/07/14 12:14:36;;;;;;;3.15;2.85;;;26.70;85.80;;;;;;5051355;28;20080;-72
2023/07/14 12:17:21;;;;;;;5.10;2.80;;;26.70;84.50;;;;;;5034496;28;20419;-72
2023/07/14 12:19:52;;;;;;;5.40;2.67;;;26.70;84.20;;;;;;5052228;28;20044;-73
2023/07/14 12:22:36;;;;;;;4.53;2.92;;;26.70;84.10;;;;;;5051832;28;20049;-72
2023/07/14 12:25:13;;;;;;;3.65;2.60;;;26.80;85.20;;;;;;5034174;28;20053;-73
2023/07/14 12:27:44;;;;;;;3.22;2.53;;;26.80;85.70;;;;;;5051435;28;20418;-72
2023/07/14 12:30:18;;;;;;;5.53;2.88;;;26.80;83.90;;;;;;5051691;28;20049;-72
2023/07/14 12:32:44;;;;;;;3.13;2.50;;;26.70;82.80;;;;;;5052240;28;20049;-72
2023/07/14 12:35:18;;;;;;;3.67;2.40;;;26.40;83.70;;;;;;5051547;28;20495;-71
2023/07/14 12:37:44;;;;;;;3.58;2.70;;;26.10;83.40;;;;;;5051703;28;20052;-71
2023/07/14 12:40:31;;;;;;;3.30;2.80;;;25.70;84.40;;;;;;5017716;28;20132;-71
2023/07/14 12:42:59;;;;;;;6.93;3.17;;;25.60;84.90;;;;;;5052116;28;20116;-72
2023/07/14 12:45:24;;;;;;;5.03;2.85;;;25.50;86.20;;;;;;5033908;28;20052;-72
2023/07/14 12:47:53;;;;;;;5.95;3.20;;;25.50;85.90;;;;;;5033463;28;20056;-71
2023/07/14 12:50:24;;;;;;;6.57;2.80;;;25.50;85.40;;;;;;5051559;28;20044;-71
2023/07/14 12:52:51;;;;;;;7.00;3.38;;;25.40;85.90;;;;;;5052074;28;20044;-72
2023/07/14 12:55:20;;;;;;;4.50;2.67;;;25.50;86.90;;;;;;5051314;28;20179;-71
2023/07/14 12:57:47;;;;;;;3.88;2.70;;;25.40;87.00;;;;;;5054816;28;20053;-72
2023/07/14 13:00:20;;;;;;;3.90;2.97;;;25.30;87.40;;;;;;5055247;28;20135;-72
2023/07/14 13:02:47;;;;;;;4.88;3.10;;;25.30;87.80;;;;;;5055548;28;20127;-72